Time;durP1;ratioP1;P1;durP2;ratioP2;P2;SDS_P1;SDS_P2;PMS_P1;PMS_P2;Temp;Humidity;BMP_temperature;BMP_pressure;BME280_temperature;BME280_humidity;BME280_pressure;Samples;Min_cycle;Max_cycle;Signal;HPM_P1;HPM_P2
2021/12/22 00:00:35;;;;;;;1.37;0.95;;;0.10;71.60;;;;;;1893990;76;21073;-42
2021/12/22 00:03:07;;;;;;;1.65;1.52;;;0.10;71.80;;;;;;1893985;74;21139;-42
2021/12/22 00:05:43;;;;;;;0.93;0.93;;;0.10;72.60;;;;;;1894006;76;21452;-41
2021/12/22 00:08:06;;;;;;;1.92;1.72;;;0.10;72.40;;;;;;1893203;75;21046;-41
2021/12/22 00:10:36;;;;;;;1.20;1.12;;;0.10;72.60;;;;;;1893962;76;21030;-41
2021/12/22 00:13:05;;;;;;;1.57;1.47;;;0.10;72.20;;;;;;1894070;76;21049;-41
2021/12/22 00:15:34;;;;;;;1.37;0.95;;;0.10;71.10;;;;;;1894055;76;21022;-41
2021/12/22 00:18:04;;;;;;;2.62;1.77;;;0.10;69.20;;;;;;1894008;76;21026;-41
2021/12/22 00:20:34;;;;;;;2.27;1.50;;;0.00;70.20;;;;;;1893958;74;21026;-41
2021/12/22 00:23:04;;;;;;;1.27;1.17;;;0.10;70.50;;;;;;1893984;74;21092;-41
2021/12/22 00:25:33;;;;;;;3.90;1.70;;;0.00;71.00;;;;;;1894097;76;21026;-41
2021/12/22 00:28:03;;;;;;;1.90;1.57;;;0.00;70.60;;;;;;1893968;76;21023;-41
2021/12/22 00:30:32;;;;;;;0.90;0.90;;;0.00;69.20;;;;;;1894070;76;21119;-41
2021/12/22 00:33:04;;;;;;;2.05;1.40;;;0.00;69.20;;;;;;1894028;76;21006;-41
2021/12/22 00:35:55;;;;;;;1.87;0.88;;;-0.10;65.60;;;;;;1894162;75;21129;-42
2021/12/22 00:38:04;;;;;;;1.10;0.93;;;-0.10;67.00;;;;;;1876736;75;21468;-41
2021/12/22 00:40:34;;;;;;;2.90;1.32;;;-0.20;65.10;;;;;;1894011;74;21085;-41
2021/12/22 00:43:04;;;;;;;1.60;1.35;;;-0.20;66.60;;;;;;1894107;76;21042;-41
2021/12/22 00:45:35;;;;;;;2.40;1.60;;;-0.20;66.40;;;;;;1894118;76;21096;-42
2021/12/22 00:48:06;;;;;;;1.30;1.00;;;-0.30;63.00;;;;;;1894224;75;21109;-42
2021/12/22 00:50:36;;;;;;;2.72;1.52;;;-0.30;62.50;;;;;;1893460;75;21113;-42
2021/12/22 00:53:06;;;;;;;1.95;1.50;;;-0.40;60.50;;;;;;1893886;76;21101;-41
2021/12/22 00:55:35;;;;;;;0.90;0.90;;;-0.40;60.20;;;;;;1893983;75;21131;-41
2021/12/22 00:58:05;;;;;;;1.35;1.10;;;-0.50;61.70;;;;;;1893977;76;21085;-41
2021/12/22 01:00:34;;;;;;;1.55;1.30;;;-0.50;61.40;;;;;;1894060;74;21026;-41
2021/12/22 01:03:04;;;;;;;2.30;1.05;;;-0.60;60.60;;;;;;1893999;76;21476;-41
2021/12/22 01:05:34;;;;;;;0.70;0.70;;;-0.60;59.30;;;;;;1893950;76;21030;-41
2021/12/22 01:08:03;;;;;;;1.25;1.15;;;-0.60;62.80;;;;;;1894018;76;21096;-41
2021/12/22 01:10:32;;;;;;;1.52;1.12;;;-0.60;63.60;;;;;;1893929;75;21041;-41
2021/12/22 01:13:04;;;;;;;1.27;1.17;;;-0.60;63.50;;;;;;1893938;74;21026;-41
2021/12/22 01:15:34;;;;;;;7.25;2.12;;;-0.70;58.70;;;;;;1894080;76;21046;-41
2021/12/22 01:18:15;;;;;;;1.62;0.95;;;-0.70;59.30;;;;;;1893935;76;21014;-41
2021/12/22 01:21:00;;;;;;;1.42;1.17;;;-0.70;58.60;;;;;;1893859;75;21046;-41
2021/12/22 01:23:22;;;;;;;1.07;0.98;;;-0.80;60.80;;;;;;1892976;75;21065;-41
2021/12/22 01:25:51;;;;;;;1.05;0.90;;;-0.80;59.10;;;;;;1894158;75;21069;-42
2021/12/22 01:28:27;;;;;;;0.80;0.80;;;-0.80;59.70;;;;;;1893993;76;21046;-41
2021/12/22 01:30:52;;;;;;;1.67;1.42;;;-0.80;60.30;;;;;;1891620;75;21573;-42
2021/12/22 01:33:21;;;;;;;1.57;1.02;;;-0.90;61.20;;;;;;1894052;76;21026;-42
2021/12/22 01:35:51;;;;;;;1.05;0.95;;;-0.90;60.90;;;;;;1894033;75;21120;-42
2021/12/22 01:38:20;;;;;;;1.47;1.27;;;-0.90;60.60;;;;;;1893984;76;21030;-41
2021/12/22 01:40:50;;;;;;;1.32;1.12;;;-0.90;60.60;;;;;;1893897;75;21099;-41
2021/12/22 01:43:20;;;;;;;1.27;1.22;;;-0.90;59.00;;;;;;1894083;76;21469;-41
2021/12/22 01:51:43;;;;;;;1.15;1.05;;;-0.90;62.50;;;;;;1893929;76;21050;-41
2021/12/22 01:54:24;;;;;;;1.07;1.07;;;-1.00;59.20;;;;;;1893946;76;21026;-41
2021/12/22 01:56:54;;;;;;;1.75;1.62;;;-1.00;59.90;;;;;;1882215;76;21042;-41
2021/12/22 01:59:23;;;;;;;1.72;1.62;;;-1.00;59.80;;;;;;1893979;76;21022;-42
2021/12/22 02:01:54;;;;;;;2.00;1.67;;;-1.00;58.30;;;;;;1893806;75;21074;-42
2021/12/22 02:04:24;;;;;;;9.40;4.75;;;-1.10;55.80;;;;;;1894048;76;21026;-41
2021/12/22 02:06:54;;;;;;;3.37;2.15;;;-1.10;59.20;;;;;;1893913;76;21050;-41
2021/12/22 02:12:01;;;;;;;4.28;3.47;;;-1.10;56.70;;;;;;1826832;75;21046;-42
2021/12/22 02:14:31;;;;;;;2.35;2.15;;;-1.10;58.10;;;;;;1894108;76;21053;-42
2021/12/22 02:17:05;;;;;;;4.03;2.12;;;-1.20;58.00;;;;;;1894053;76;21030;-42
2021/12/22 02:19:31;;;;;;;3.12;2.75;;;-1.20;58.50;;;;;;1893779;74;21116;-41
2021/12/22 02:22:07;;;;;;;2.85;2.00;;;-1.20;58.10;;;;;;1894040;76;21025;-42
2021/12/22 02:24:31;;;;;;;3.55;2.17;;;-1.10;56.60;;;;;;1893548;74;21092;-41
2021/12/22 02:27:06;;;;;;;1.42;1.07;;;-1.20;57.90;;;;;;1893998;76;21030;-43
2021/12/22 02:29:39;;;;;;;3.58;1.90;;;-1.20;57.20;;;;;;1893758;74;21529;-41
2021/12/22 02:32:28;;;;;;;13.95;6.55;;;-1.10;58.20;;;;;;1894079;76;21002;-42
2021/12/22 02:34:47;;;;;;;8.77;3.60;;;-1.10;59.80;;;;;;1890047;74;21535;-42
2021/12/22 02:37:18;;;;;;;6.03;2.25;;;-1.10;58.30;;;;;;1894218;75;21030;-41
2021/12/22 02:39:57;;;;;;;1.72;1.62;;;-1.10;59.00;;;;;;1893898;74;21159;-41
2021/12/22 02:42:24;;;;;;;12.58;1.62;;;-1.00;59.60;;;;;;1893565;75;21030;-42
2021/12/22 02:44:52;;;;;;;1.17;1.07;;;-1.00;60.60;;;;;;1894001;76;21467;-43
2021/12/22 02:47:25;;;;;;;4.42;1.55;;;-1.00;59.40;;;;;;1894231;75;21162;-41
2021/12/22 02:49:55;;;;;;;2.92;2.30;;;-1.00;60.30;;;;;;1893950;75;21218;-42
2021/12/22 02:52:31;;;;;;;2.35;1.90;;;-1.00;61.10;;;;;;1893988;76;21026;-41
2021/12/22 02:54:56;;;;;;;1.40;1.15;;;-0.90;60.50;;;;;;1893036;75;21026;-42
2021/12/22 02:57:31;;;;;;;0.98;0.93;;;-0.90;61.20;;;;;;1894012;76;21095;-42
2021/12/22 03:03:10;;;;;;;1.15;1.10;;;-1.00;60.80;;;;;;1894001;74;21038;-41
2021/12/22 03:05:19;;;;;;;5.45;3.75;;;-1.00;61.80;;;;;;1881633;76;21058;-42
2021/12/22 03:07:48;;;;;;;5.12;4.08;;;-0.90;63.00;;;;;;1893849;75;21092;-41
2021/12/22 03:10:18;;;;;;;3.45;2.50;;;-0.90;63.40;;;;;;1893947;76;21058;-41
2021/12/22 03:12:55;;;;;;;8.50;5.00;;;-0.90;63.80;;;;;;1893863;75;21030;-42
2021/12/22 03:15:23;;;;;;;1.47;1.37;;;-0.80;63.80;;;;;;1893861;75;21104;-43
2021/12/22 03:17:53;;;;;;;4.80;3.55;;;-0.80;62.30;;;;;;1893901;75;21084;-42
2021/12/22 03:20:23;;;;;;;2.30;2.05;;;-0.90;63.50;;;;;;1893952;76;21026;-43
2021/12/22 03:22:52;;;;;;;2.77;2.40;;;-1.00;66.50;;;;;;1893916;76;21026;-41
2021/12/22 03:25:26;;;;;;;2.50;1.50;;;-1.20;68.80;;;;;;1894153;76;21022;-42
2021/12/22 03:27:54;;;;;;;2.85;2.55;;;-1.30;69.00;;;;;;1893728;75;21092;-42
2021/12/22 03:30:25;;;;;;;4.00;2.50;;;-1.30;69.80;;;;;;1894047;76;21088;-42
2021/12/22 03:32:55;;;;;;;3.17;2.67;;;-1.40;70.40;;;;;;1894029;76;21038;-41
2021/12/22 03:35:24;;;;;;;2.05;1.85;;;-1.40;70.60;;;;;;1893810;76;21030;-42
2021/12/22 03:37:56;;;;;;;1.90;1.72;;;-1.40;71.40;;;;;;1893977;76;21026;-42
2021/12/22 03:40:26;;;;;;;1.62;1.52;;;-1.40;72.60;;;;;;1894051;76;21024;-42
2021/12/22 03:42:56;;;;;;;3.25;2.90;;;-1.50;72.90;;;;;;1894237;76;21053;-43
2021/12/22 03:45:25;;;;;;;2.90;2.45;;;-1.50;72.60;;;;;;1894044;76;21010;-42
2021/12/22 03:47:54;;;;;;;2.80;2.33;;;-1.50;74.40;;;;;;1893929;76;21084;-42
2021/12/22 03:50:24;;;;;;;3.67;2.33;;;-1.50;74.60;;;;;;1894013;75;21179;-42
2021/12/22 03:52:53;;;;;;;1.90;1.55;;;-1.50;74.00;;;;;;1894127;76;21030;-44
2021/12/22 03:55:22;;;;;;;2.50;2.25;;;-1.40;75.10;;;;;;1894077;76;21026;-45
2021/12/22 03:57:51;;;;;;;2.08;1.85;;;-1.50;75.00;;;;;;1894098;76;21030;-42
2021/12/22 04:00:21;;;;;;;2.77;1.92;;;-1.50;76.80;;;;;;1894076;76;21092;-42
2021/12/22 04:02:51;;;;;;;1.50;1.40;;;-1.60;77.00;;;;;;1894119;76;21026;-41
2021/12/22 04:05:20;;;;;;;2.37;2.08;;;-1.70;78.10;;;;;;1894168;74;21022;-43
2021/12/22 15:15:49;;;;;;;4.30;2.50;;;-1.00;65.00;;;;;;1959064;73;22179;-44
2021/12/22 15:18:18;;;;;;;2.98;2.40;;;-0.50;67.60;;;;;;1918398;75;21314;-44
2021/12/22 15:20:48;;;;;;;3.92;2.42;;;-0.70;67.90;;;;;;1918374;75;21069;-43
2021/12/22 15:23:17;;;;;;;3.40;2.12;;;-0.70;68.50;;;;;;1918373;75;20999;-44
2021/12/22 15:25:48;;;;;;;2.85;2.60;;;-0.70;68.30;;;;;;1918403;75;21022;-43
2021/12/22 15:28:18;;;;;;;2.98;1.98;;;-0.70;67.90;;;;;;1918359;74;21014;-44
2021/12/22 15:30:49;;;;;;;2.12;1.77;;;-0.80;68.50;;;;;;1918506;74;21034;-44
2021/12/22 15:33:19;;;;;;;5.92;3.52;;;-0.80;66.60;;;;;;1918354;75;21028;-44
2021/12/22 15:35:48;;;;;;;2.30;2.00;;;-0.90;66.70;;;;;;1918244;75;21022;-44
2021/12/22 15:38:19;;;;;;;1.47;1.37;;;-0.90;67.80;;;;;;1918355;75;21468;-44
2021/12/22 15:40:48;;;;;;;5.37;2.67;;;-0.90;67.50;;;;;;1918263;75;21023;-44
2021/12/22 15:43:18;;;;;;;3.22;2.20;;;-1.00;66.30;;;;;;1918354;75;21023;-44
2021/12/22 15:45:48;;;;;;;4.95;2.20;;;-1.10;67.70;;;;;;1918226;75;21088;-44
2021/12/22 15:48:17;;;;;;;5.15;2.65;;;-1.10;67.70;;;;;;1918388;75;20999;-44
2021/12/22 15:50:47;;;;;;;9.50;2.67;;;-1.10;67.50;;;;;;1918430;75;21039;-43
2021/12/22 15:53:17;;;;;;;5.53;3.80;;;-1.10;68.20;;;;;;1918250;75;21031;-44
2021/12/22 15:55:47;;;;;;;12.80;2.90;;;-1.00;68.90;;;;;;1918346;74;21043;-44
2021/12/22 15:58:17;;;;;;;12.90;2.62;;;-1.00;68.20;;;;;;1918308;74;21047;-43
2021/12/22 16:00:46;;;;;;;8.33;3.67;;;-1.00;68.30;;;;;;1918257;74;21090;-45
2021/12/22 16:03:15;;;;;;;4.53;2.35;;;-0.90;69.10;;;;;;1918161;75;21002;-44
2021/12/22 16:05:45;;;;;;;6.42;3.58;;;-0.90;68.80;;;;;;1918210;75;21548;-43
2021/12/22 16:08:14;;;;;;;5.45;2.55;;;-0.90;68.60;;;;;;1918323;75;21085;-44
2021/12/22 16:10:44;;;;;;;3.00;2.50;;;-0.90;69.10;;;;;;1918264;75;21027;-44
2021/12/22 16:13:13;;;;;;;3.45;2.95;;;-0.90;69.00;;;;;;1918222;75;21073;-43
2021/12/22 16:15:43;;;;;;;7.92;3.22;;;-0.80;69.50;;;;;;1923279;74;21116;-44
2021/12/22 16:18:13;;;;;;;4.10;2.30;;;-0.80;69.10;;;;;;1925237;74;21089;-44
2021/12/22 16:20:42;;;;;;;8.80;2.37;;;-0.80;68.70;;;;;;1925294;74;20992;-44
2021/12/22 16:23:12;;;;;;;13.83;2.87;;;-0.90;68.20;;;;;;1925317;74;21051;-43
2021/12/22 16:25:41;;;;;;;7.70;2.80;;;-0.90;68.90;;;;;;1924921;74;21030;-44
2021/12/22 16:28:11;;;;;;;5.42;2.75;;;-0.90;68.30;;;;;;1924605;74;21089;-44
2021/12/22 16:30:40;;;;;;;5.65;2.90;;;-1.00;69.30;;;;;;1924532;74;21096;-44
2021/12/22 16:33:09;;;;;;;6.17;2.83;;;-1.10;68.80;;;;;;1924634;74;21015;-44
2021/12/22 16:35:39;;;;;;;3.33;2.60;;;-1.10;68.80;;;;;;1924585;74;21073;-44
2021/12/22 16:38:08;;;;;;;9.18;2.52;;;-1.10;69.30;;;;;;1924676;74;21026;-43
2021/12/22 16:40:38;;;;;;;10.75;2.95;;;-1.10;70.40;;;;;;1924719;74;21043;-44
2021/12/22 16:43:07;;;;;;;2.98;2.47;;;-1.10;67.00;;;;;;1924530;74;21013;-44
2021/12/22 16:45:36;;;;;;;5.12;3.20;;;-1.20;68.40;;;;;;1924625;74;21023;-45
2021/12/22 16:48:06;;;;;;;20.30;3.67;;;-1.20;69.30;;;;;;1924588;74;21023;-43
2021/12/22 16:50:36;;;;;;;3.83;2.08;;;-1.20;70.20;;;;;;1924660;74;21015;-44
2021/12/22 16:53:06;;;;;;;6.53;2.77;;;-1.10;70.40;;;;;;1924597;74;21076;-44
2021/12/22 16:55:35;;;;;;;7.97;2.87;;;-1.00;70.50;;;;;;1924597;74;21036;-44
2021/12/22 16:58:06;;;;;;;5.00;3.05;;;-0.90;69.80;;;;;;1924582;74;21014;-44
2021/12/22 17:00:37;;;;;;;6.42;3.60;;;-0.90;70.20;;;;;;1924604;74;20999;-45
2021/12/22 17:03:06;;;;;;;5.22;2.22;;;-0.90;68.90;;;;;;1924758;74;21097;-44
2021/12/22 17:05:36;;;;;;;1.45;1.35;;;-1.00;67.80;;;;;;1924651;74;21014;-44
2021/12/22 17:08:07;;;;;;;3.95;2.62;;;-1.10;66.20;;;;;;1924564;74;21069;-44
2021/12/22 17:10:37;;;;;;;7.03;2.83;;;-1.20;66.40;;;;;;1924647;74;21160;-44
2021/12/22 17:13:07;;;;;;;2.17;1.90;;;-1.30;68.30;;;;;;1924671;74;21027;-44
2021/12/22 17:15:37;;;;;;;4.47;2.10;;;-1.40;68.10;;;;;;1916631;74;21043;-43
2021/12/22 17:18:07;;;;;;;3.77;2.30;;;-1.40;67.40;;;;;;1905325;74;21023;-44
2021/12/22 17:20:40;;;;;;;5.37;2.75;;;-1.40;68.10;;;;;;1905179;75;21000;-44
2021/12/22 17:23:14;;;;;;;3.17;2.20;;;-1.40;69.30;;;;;;1905328;75;21089;-44
2021/12/22 17:25:44;;;;;;;2.90;2.40;;;-1.40;67.60;;;;;;1905413;75;21023;-44
2021/12/22 17:28:14;;;;;;;6.00;3.12;;;-1.50;67.70;;;;;;1905209;75;21051;-43
2021/12/22 17:30:43;;;;;;;14.13;3.87;;;-1.50;69.10;;;;;;1905211;74;21020;-44
2021/12/22 17:33:12;;;;;;;4.30;2.75;;;-1.50;70.60;;;;;;1905165;75;21070;-44
2021/12/22 17:35:42;;;;;;;3.90;3.02;;;-1.40;69.70;;;;;;1905320;75;21058;-44
2021/12/22 17:38:12;;;;;;;7.22;2.75;;;-1.40;69.80;;;;;;1905154;75;20988;-44
2021/12/22 17:40:42;;;;;;;4.50;2.35;;;-1.30;70.90;;;;;;1905447;74;21094;-45
2021/12/22 17:43:11;;;;;;;3.72;2.45;;;-1.30;69.30;;;;;;1905257;75;21062;-44
2021/12/22 17:45:41;;;;;;;2.87;2.40;;;-1.30;70.40;;;;;;1905164;75;21019;-43
2021/12/22 17:48:10;;;;;;;10.35;4.30;;;-1.30;69.80;;;;;;1905233;75;21026;-44
2021/12/22 17:50:40;;;;;;;4.45;3.20;;;-1.30;70.10;;;;;;1905256;75;21024;-45
2021/12/22 17:53:10;;;;;;;3.80;2.60;;;-1.30;70.30;;;;;;1905215;75;21015;-44
2021/12/22 17:55:40;;;;;;;4.25;2.35;;;-1.30;70.00;;;;;;1905198;75;21106;-44
2021/12/22 17:58:12;;;;;;;5.72;2.12;;;-1.30;70.60;;;;;;1905148;74;21020;-43
2021/12/22 18:00:44;;;;;;;4.62;2.95;;;-1.30;68.50;;;;;;1892508;75;21094;-44
2021/12/22 18:03:14;;;;;;;18.10;3.10;;;-1.30;69.90;;;;;;1905231;75;21105;-44
2021/12/22 18:05:43;;;;;;;4.95;2.12;;;-1.30;70.40;;;;;;1905294;74;21066;-43
2021/12/22 18:08:13;;;;;;;3.37;2.42;;;-1.30;70.80;;;;;;1905170;75;21046;-43
2021/12/22 18:10:42;;;;;;;4.42;2.55;;;-1.30;69.90;;;;;;1905264;74;21096;-44
2021/12/22 18:13:13;;;;;;;4.47;2.02;;;-1.30;68.80;;;;;;1905289;75;21078;-44
2021/12/22 18:15:43;;;;;;;5.10;2.40;;;-1.30;69.80;;;;;;1909247;74;21569;-44
2021/12/22 18:18:12;;;;;;;3.85;2.55;;;-1.40;71.00;;;;;;1924718;74;21123;-44
2021/12/22 18:20:41;;;;;;;5.92;2.72;;;-1.40;70.80;;;;;;1924655;74;21018;-44
2021/12/22 18:23:13;;;;;;;3.92;2.30;;;-1.30;71.60;;;;;;1924545;74;21014;-44
2021/12/22 18:25:42;;;;;;;3.80;2.58;;;-1.20;71.70;;;;;;1924684;74;21139;-44
2021/12/22 18:28:11;;;;;;;4.45;2.90;;;-1.10;70.60;;;;;;1924674;74;20999;-44
2021/12/22 18:30:41;;;;;;;6.92;2.72;;;-1.10;71.30;;;;;;1924674;74;21015;-44
2021/12/22 18:33:11;;;;;;;8.83;3.98;;;-1.10;70.70;;;;;;1924550;74;21030;-44
2021/12/22 18:35:43;;;;;;;7.42;4.28;;;-1.00;71.30;;;;;;1924560;74;20995;-44
2021/12/22 18:40:48;;;;;;;5.33;3.97;;;-0.90;72.20;;;;;;1924952;74;21003;-45
2021/12/22 18:43:21;;;;;;;6.05;4.28;;;-0.90;72.30;;;;;;1924721;74;21080;-45
2021/12/22 18:45:52;;;;;;;8.10;4.05;;;-0.80;72.70;;;;;;1924926;74;21015;-44
2021/12/22 18:48:23;;;;;;;7.50;4.25;;;-0.80;72.40;;;;;;1924578;74;21472;-44
2021/12/22 18:50:55;;;;;;;5.83;4.15;;;-0.80;72.00;;;;;;1924652;74;21144;-45
2021/12/22 18:53:25;;;;;;;7.55;3.85;;;-0.70;72.00;;;;;;1924638;74;21031;-44
2021/12/22 18:55:55;;;;;;;6.00;3.92;;;-0.70;72.50;;;;;;1924533;74;21022;-44
2021/12/22 18:58:24;;;;;;;5.12;3.42;;;-0.70;72.70;;;;;;1924640;74;21093;-44
2021/12/22 19:00:55;;;;;;;6.85;3.27;;;-0.60;72.80;;;;;;1924719;74;21018;-45
2021/12/22 19:03:25;;;;;;;4.08;2.95;;;-0.60;73.00;;;;;;1924643;74;21018;-44
2021/12/22 19:05:55;;;;;;;5.37;3.70;;;-0.60;73.30;;;;;;1924541;74;21042;-44
2021/12/22 19:08:24;;;;;;;10.68;4.53;;;-0.60;73.20;;;;;;1924512;74;20994;-44
2021/12/22 19:10:54;;;;;;;4.92;3.85;;;-0.60;73.20;;;;;;1924533;74;21097;-43
2021/12/22 19:13:23;;;;;;;7.95;4.30;;;-0.70;73.20;;;;;;1924508;74;21015;-44
2021/12/22 19:15:52;;;;;;;9.43;4.47;;;-0.60;73.40;;;;;;1924140;74;21042;-45
2021/12/22 19:18:22;;;;;;;8.40;4.17;;;-0.60;73.40;;;;;;1905150;74;21067;-44
2021/12/22 19:20:52;;;;;;;4.20;3.60;;;-0.60;73.80;;;;;;1905322;75;21301;-44
2021/12/22 19:23:21;;;;;;;4.40;3.30;;;-0.70;73.70;;;;;;1905133;75;21003;-43
2021/12/22 19:25:52;;;;;;;4.22;3.05;;;-0.70;73.80;;;;;;1905224;75;21081;-45
2021/12/22 19:28:23;;;;;;;5.97;3.90;;;-0.70;74.00;;;;;;1905216;74;21019;-45
2021/12/22 19:30:55;;;;;;;7.47;3.45;;;-0.80;73.60;;;;;;1905246;75;21027;-44
2021/12/22 19:33:25;;;;;;;4.05;3.52;;;-0.90;73.30;;;;;;1905061;74;21019;-44
2021/12/22 19:35:55;;;;;;;5.90;3.42;;;-0.90;73.90;;;;;;1905105;75;21015;-44
2021/12/22 19:38:27;;;;;;;5.70;3.95;;;-1.00;74.20;;;;;;1905128;74;21039;-44
2021/12/22 19:40:56;;;;;;;3.45;2.77;;;-1.00;74.90;;;;;;1905119;75;21085;-45
2021/12/22 19:43:27;;;;;;;6.03;3.20;;;-1.10;73.30;;;;;;1905250;75;21020;-45
2021/12/22 19:45:56;;;;;;;7.00;2.77;;;-1.10;73.80;;;;;;1905136;74;21476;-44
2021/12/22 19:48:26;;;;;;;3.40;2.80;;;-1.20;71.30;;;;;;1905129;75;21016;-44
2021/12/22 19:50:55;;;;;;;3.98;2.47;;;-1.40;72.00;;;;;;1905258;74;21040;-44
2021/12/22 19:53:25;;;;;;;5.58;2.45;;;-1.50;72.70;;;;;;1905126;75;21024;-44
2021/12/22 19:55:54;;;;;;;5.30;2.47;;;-1.60;73.50;;;;;;1905231;75;21084;-44
2021/12/22 19:58:23;;;;;;;3.67;2.30;;;-1.60;74.70;;;;;;1905124;75;21070;-44
2021/12/22 20:00:53;;;;;;;8.80;3.02;;;-1.60;74.10;;;;;;1905268;75;21031;-44
2021/12/22 20:03:22;;;;;;;2.92;2.67;;;-1.60;73.20;;;;;;1905328;75;21093;-45
2021/12/22 20:05:52;;;;;;;9.08;3.47;;;-1.70;73.70;;;;;;1905423;75;21329;-44
2021/12/22 20:08:22;;;;;;;5.58;3.52;;;-1.60;74.60;;;;;;1905282;75;21051;-44
2021/12/22 20:10:51;;;;;;;13.22;3.58;;;-1.60;74.90;;;;;;1905276;75;21112;-44
2021/12/22 20:13:20;;;;;;;6.35;2.95;;;-1.60;74.30;;;;;;1905344;74;21004;-44
2021/12/22 20:15:49;;;;;;;5.28;3.55;;;-1.60;75.40;;;;;;1905252;75;21580;-44
2021/12/22 20:18:19;;;;;;;5.58;2.67;;;-1.60;74.90;;;;;;1919703;74;21054;-44
2021/12/22 20:20:48;;;;;;;3.95;2.67;;;-1.50;74.50;;;;;;1924748;74;21090;-44
2021/12/22 20:23:18;;;;;;;5.28;2.58;;;-1.60;72.60;;;;;;1924832;74;21018;-45
2021/12/22 20:25:47;;;;;;;6.92;2.52;;;-1.70;72.80;;;;;;1924586;74;21038;-44
2021/12/22 20:28:17;;;;;;;1.45;1.35;;;-1.80;73.50;;;;;;1924655;74;21018;-45
2021/12/22 20:30:46;;;;;;;4.37;2.52;;;-1.90;72.40;;;;;;1924594;74;21022;-44
2021/12/22 20:33:15;;;;;;;4.33;3.05;;;-2.10;73.00;;;;;;1924640;74;21026;-44
2021/12/22 20:35:44;;;;;;;3.67;2.20;;;-2.10;72.00;;;;;;1924736;74;21027;-45
2021/12/22 20:38:14;;;;;;;3.45;2.75;;;-2.30;72.30;;;;;;1924746;74;21509;-46
2021/12/22 20:40:43;;;;;;;4.97;2.77;;;-2.30;72.80;;;;;;1924619;74;21062;-44
2021/12/22 20:43:13;;;;;;;2.40;2.12;;;-2.40;73.30;;;;;;1924611;74;21128;-44
2021/12/22 20:45:49;;;;;;;3.52;2.98;;;-2.40;73.10;;;;;;1924593;74;21127;-45
2021/12/22 20:48:16;;;;;;;5.87;3.25;;;-2.40;74.40;;;;;;1924276;74;21117;-43
2021/12/22 20:50:45;;;;;;;4.03;2.20;;;-2.40;73.50;;;;;;1924747;74;21085;-43
2021/12/22 20:53:15;;;;;;;2.25;2.05;;;-2.40;73.70;;;;;;1924604;74;21014;-44
2021/12/22 20:55:44;;;;;;;3.60;2.35;;;-2.40;72.60;;;;;;1924733;74;21027;-43
2021/12/22 20:58:14;;;;;;;3.80;2.70;;;-2.50;72.60;;;;;;1924546;74;21011;-43
2021/12/22 21:00:44;;;;;;;3.58;2.90;;;-2.50;72.70;;;;;;1924661;74;21081;-44
2021/12/22 21:03:15;;;;;;;8.28;3.12;;;-2.50;73.20;;;;;;1924554;74;21018;-44
2021/12/22 21:05:44;;;;;;;5.22;2.95;;;-2.60;73.50;;;;;;1924551;74;21039;-43
2021/12/22 21:08:13;;;;;;;3.85;2.80;;;-2.60;73.70;;;;;;1924708;74;21071;-44
2021/12/22 21:10:44;;;;;;;3.80;2.58;;;-2.60;72.70;;;;;;1924727;74;21137;-43
2021/12/22 21:13:13;;;;;;;3.02;2.20;;;-2.60;73.20;;;;;;1924689;74;21132;-43
2021/12/22 21:15:44;;;;;;;6.12;2.60;;;-2.60;73.30;;;;;;1924747;74;21086;-43
2021/12/22 21:18:13;;;;;;;3.77;2.37;;;-2.60;74.20;;;;;;1916687;74;21121;-43
2021/12/22 21:20:42;;;;;;;6.03;2.72;;;-2.50;73.70;;;;;;1905251;75;21047;-43
2021/12/22 21:23:12;;;;;;;4.58;2.98;;;-2.40;74.20;;;;;;1905351;75;21066;-43
2021/12/22 21:25:42;;;;;;;6.78;3.87;;;-2.40;74.40;;;;;;1905165;75;21027;-43
2021/12/22 21:28:12;;;;;;;4.90;3.10;;;-2.40;74.20;;;;;;1905308;75;21019;-43
2021/12/22 21:30:42;;;;;;;4.50;3.42;;;-2.30;73.90;;;;;;1905482;75;21102;-45
2021/12/22 21:33:12;;;;;;;4.20;2.62;;;-2.20;74.20;;;;;;1905209;75;21027;-44
2021/12/22 21:35:43;;;;;;;6.28;2.98;;;-2.20;74.00;;;;;;1905212;74;21023;-44
2021/12/22 21:38:13;;;;;;;3.30;2.37;;;-2.30;73.70;;;;;;1905149;75;21046;-43
2021/12/22 21:40:43;;;;;;;3.83;2.65;;;-2.30;74.30;;;;;;1905312;75;21128;-43
2021/12/22 21:43:12;;;;;;;4.30;3.00;;;-2.20;74.10;;;;;;1905273;75;21059;-43
2021/12/22 21:45:42;;;;;;;5.97;2.30;;;-2.20;73.70;;;;;;1905179;75;21015;-44
2021/12/22 21:48:11;;;;;;;4.67;2.40;;;-2.30;72.70;;;;;;1905282;75;21051;-43
2021/12/22 21:50:41;;;;;;;6.58;2.85;;;-2.20;73.00;;;;;;1905331;75;21073;-43
2021/12/22 21:53:10;;;;;;;4.08;3.12;;;-2.30;71.80;;;;;;1905165;75;21091;-44
2021/12/22 21:55:40;;;;;;;2.95;2.52;;;-2.30;72.20;;;;;;1905332;75;21015;-43
2021/12/22 21:58:09;;;;;;;5.17;3.65;;;-2.30;72.60;;;;;;1905138;75;20999;-44
2021/12/22 22:00:38;;;;;;;3.20;2.90;;;-2.30;72.50;;;;;;1905242;74;21101;-43
2021/12/22 22:03:09;;;;;;;3.87;2.50;;;-2.40;72.00;;;;;;1905239;75;21024;-44
2021/12/22 22:05:40;;;;;;;19.92;3.37;;;-2.40;72.30;;;;;;1905321;75;21081;-43
2021/12/22 22:08:09;;;;;;;4.65;2.85;;;-2.40;72.50;;;;;;1905207;75;21473;-44
2021/12/22 22:10:40;;;;;;;7.10;3.75;;;-2.40;73.80;;;;;;1905333;75;21065;-43
2021/12/22 22:13:10;;;;;;;6.55;3.83;;;-2.30;74.20;;;;;;1905310;75;21023;-44
2021/12/22 22:15:39;;;;;;;4.87;2.58;;;-2.20;74.40;;;;;;1905305;75;21039;-44
2021/12/22 22:18:09;;;;;;;6.15;3.62;;;-2.10;74.00;;;;;;1905156;75;21081;-44
2021/12/22 22:20:38;;;;;;;5.30;3.60;;;-2.10;74.50;;;;;;1920165;74;21042;-45
2021/12/22 22:23:08;;;;;;;6.80;3.67;;;-2.00;75.00;;;;;;1924520;74;21030;-43
2021/12/22 22:25:38;;;;;;;6.65;2.98;;;-1.90;75.20;;;;;;1924542;74;21023;-43
2021/12/22 22:28:07;;;;;;;4.62;2.98;;;-1.80;73.80;;;;;;1924605;74;21098;-43
2021/12/22 22:30:37;;;;;;;3.70;2.70;;;-1.80;74.00;;;;;;1924671;74;21023;-42
2021/12/22 22:33:07;;;;;;;4.85;3.25;;;-1.80;72.40;;;;;;1924529;74;21019;-43
2021/12/22 22:35:37;;;;;;;3.90;2.87;;;-1.80;72.80;;;;;;1924611;74;21018;-44
2021/12/22 22:38:06;;;;;;;8.13;3.60;;;-1.80;74.10;;;;;;1924611;74;21030;-43
2021/12/22 22:40:35;;;;;;;3.98;2.85;;;-1.90;74.50;;;;;;1924817;74;21396;-44
2021/12/22 22:43:04;;;;;;;5.62;3.40;;;-1.90;74.20;;;;;;1924534;74;21026;-43
2021/12/22 22:45:34;;;;;;;4.45;3.22;;;-1.80;72.80;;;;;;1924527;74;21018;-43
2021/12/22 22:48:03;;;;;;;3.92;3.20;;;-1.90;74.50;;;;;;1924542;74;21031;-43
2021/12/22 22:50:33;;;;;;;9.95;3.75;;;-1.90;74.60;;;;;;1924575;74;21018;-43
2021/12/22 22:53:02;;;;;;;7.05;3.75;;;-1.90;73.70;;;;;;1924603;74;21523;-43
2021/12/22 22:55:32;;;;;;;5.85;2.83;;;-1.90;74.60;;;;;;1924606;74;21068;-43
2021/12/22 22:58:01;;;;;;;4.25;3.08;;;-1.90;74.20;;;;;;1924623;74;21023;-43
2021/12/22 23:00:36;;;;;;;3.87;2.77;;;-1.90;74.20;;;;;;1924602;74;21035;-43
2021/12/22 23:03:06;;;;;;;3.98;3.00;;;-1.90;73.60;;;;;;1924569;74;21031;-44
2021/12/22 23:05:36;;;;;;;6.22;3.60;;;-1.90;72.50;;;;;;1924524;74;21011;-43
2021/12/22 23:08:05;;;;;;;6.15;3.17;;;-2.00;73.90;;;;;;1924565;74;21023;-42
2021/12/22 23:10:35;;;;;;;4.97;2.77;;;-2.00;73.70;;;;;;1924515;74;21018;-44
2021/12/22 23:13:04;;;;;;;4.58;2.77;;;-2.00;72.60;;;;;;1924513;74;21085;-43
2021/12/22 23:15:33;;;;;;;4.83;3.20;;;-2.10;72.80;;;;;;1924626;74;21084;-43
2021/12/22 23:18:08;;;;;;;4.42;3.05;;;-2.20;71.00;;;;;;1924498;74;21010;-43
2021/12/22 23:20:39;;;;;;;4.92;3.05;;;-2.20;71.70;;;;;;1915131;74;21023;-43
2021/12/22 23:23:11;;;;;;;4.03;2.87;;;-2.30;72.90;;;;;;1905420;75;21039;-43
2021/12/22 23:25:40;;;;;;;3.80;2.80;;;-2.30;72.30;;;;;;1905129;75;21007;-43
2021/12/22 23:28:10;;;;;;;5.22;3.37;;;-2.40;72.90;;;;;;1905115;75;20988;-43
2021/12/22 23:30:39;;;;;;;14.07;2.77;;;-2.40;73.90;;;;;;1905104;75;21015;-42
2021/12/22 23:33:14;;;;;;;4.60;3.08;;;-2.30;74.00;;;;;;1905256;75;21082;-43
2021/12/22 23:35:39;;;;;;;6.22;3.85;;;-2.30;73.70;;;;;;1904853;74;21023;-43
2021/12/22 23:51:15;;;;;;;2.77;2.47;;;-2.40;72.60;;;;;;1905324;75;21039;-43
2021/12/22 23:53:45;;;;;;;3.83;2.35;;;-2.40;70.70;;;;;;1905365;75;21031;-43
2021/12/22 23:56:14;;;;;;;4.05;2.70;;;-2.50;70.00;;;;;;1905335;75;21457;-43
2021/12/22 23:58:44;;;;;;;6.30;2.72;;;-2.60;70.20;;;;;;1905187;75;21079;-43
